createdAt,value
2019-04-21T00:00:32.127Z,9.48
2019-04-21T00:03:07.379Z,9.55
2019-04-21T00:05:53.294Z,9.13
2019-04-21T00:08:39.258Z,9.08
2019-04-21T00:11:11.034Z,9.10
2019-04-21T00:13:28.185Z,8.93
2019-04-21T00:15:53.235Z,9.43
2019-04-21T00:18:40.866Z,8.90
2019-04-21T00:21:12.157Z,8.83
2019-04-21T00:23:41.227Z,8.33
2019-04-21T00:26:16.499Z,9.00
2019-04-21T00:28:58.110Z,9.13
2019-04-21T00:31:15.331Z,9.28
2019-04-21T00:33:31.312Z,8.88
2019-04-21T00:36:05.357Z,9.10
2019-04-21T00:38:59.128Z,8.70
2019-04-21T00:41:19.283Z,9.35
2019-04-21T00:43:37.294Z,9.00
2019-04-21T00:46:03.444Z,8.88
2019-04-21T00:48:42.447Z,9.08
2019-04-21T00:51:25.013Z,9.38
2019-04-21T00:53:51.636Z,9.28
2019-04-21T00:56:34.016Z,8.78
2019-04-21T00:58:48.751Z,8.70
2019-04-21T01:01:15.044Z,8.65
2019-04-21T01:03:46.361Z,8.85
2019-04-21T01:06:16.338Z,8.70
2019-04-21T01:08:42.778Z,9.75
2019-04-21T01:11:15.307Z,9.35
2019-04-21T01:13:46.785Z,9.63
2019-04-21T01:16:14.112Z,9.08
2019-04-21T01:18:39.441Z,8.93
2019-04-21T01:20:48.295Z,9.00
2019-04-21T01:23:16.735Z,9.18
2019-04-21T01:25:55.860Z,9.35
2019-04-21T01:28:32.816Z,8.75
2019-04-21T01:31:07.481Z,9.35
2019-04-21T01:33:41.182Z,8.95
2019-04-21T01:35:59.557Z,8.68
2019-04-21T01:38:34.368Z,9.05
2019-04-21T01:41:10.255Z,8.98
2019-04-21T01:43:28.143Z,8.98
2019-04-21T01:46:02.253Z,9.03
2019-04-21T01:48:24.662Z,8.70
2019-04-21T01:50:55.259Z,8.98
2019-04-21T01:53:48.282Z,9.35
2019-04-21T01:56:34.048Z,8.63
2019-04-21T01:58:55.288Z,9.00
2019-04-21T02:01:37.224Z,8.48
2019-04-21T02:03:59.943Z,9.08
2019-04-21T02:06:37.372Z,8.90
2019-04-21T02:08:57.729Z,9.43
2019-04-21T02:11:31.428Z,8.70
2019-04-21T02:14:05.401Z,8.98
2019-04-21T02:16:28.349Z,9.10
2019-04-21T02:18:54.451Z,8.60
2019-04-21T02:21:25.401Z,8.80
2019-04-21T02:24:09.353Z,8.85
2019-04-21T02:26:27.203Z,8.83
2019-04-21T02:29:02.056Z,9.03
2019-04-21T02:31:39.604Z,9.40
2019-04-21T02:36:40.202Z,9.33
2019-04-21T02:39:16.432Z,9.67
2019-04-21T02:44:10.103Z,9.33
2019-04-21T02:46:38.503Z,9.25
2019-04-21T02:49:11.212Z,9.30
2019-04-21T02:51:33.699Z,9.05
2019-04-21T02:59:05.329Z,9.27
2019-04-21T03:04:40.408Z,9.58
2019-04-21T03:07:13.100Z,9.28
2019-04-21T03:12:13.133Z,10.45
2019-04-21T03:14:50.433Z,10.08
2019-04-21T03:19:48.213Z,9.80
2019-04-21T03:22:13.671Z,8.97
2019-04-21T03:24:53.467Z,10.32
2019-04-21T03:27:28.824Z,10.32
2019-04-21T03:29:37.214Z,10.17
2019-04-21T03:32:31.094Z,10.97
2019-04-21T03:34:57.664Z,9.27
2019-04-21T03:39:36.676Z,10.70
2019-04-21T03:42:10.446Z,10.43
2019-04-21T03:44:32.757Z,9.80
2019-04-21T03:52:02.987Z,10.40
2019-04-21T03:54:25.948Z,10.73
2019-04-21T03:57:11.307Z,10.50
2019-04-21T03:59:20.193Z,11.23
2019-04-21T04:02:08.614Z,10.93
2019-04-21T04:07:49.640Z,9.97
2019-04-21T04:10:08.415Z,11.40
2019-04-21T04:17:32.861Z,10.30
2019-04-21T04:20:07.847Z,10.63
2019-04-21T04:25:07.749Z,10.47
2019-04-21T04:30:08.034Z,10.63
2019-04-21T04:32:42.131Z,10.93
2019-04-21T04:40:10.023Z,11.27
2019-04-21T04:45:15.043Z,11.33
2019-04-21T04:49:59.934Z,10.13
2019-04-21T05:00:15.388Z,10.37
2019-04-21T05:05:15.699Z,11.33
2019-04-21T05:07:42.879Z,10.83
2019-04-21T05:09:59.675Z,11.53
2019-04-21T05:15:04.798Z,10.67
2019-04-21T05:20:10.439Z,10.77
2019-04-21T05:22:24.300Z,11.70
2019-04-21T05:24:48.040Z,11.40
2019-04-21T05:27:55.070Z,11.80
2019-04-21T05:33:27.723Z,11.27
2019-04-21T05:36:04.771Z,10.93
2019-04-21T05:38:56.648Z,10.53
2019-04-21T05:41:18.212Z,11.07
2019-04-21T05:43:56.492Z,12.00
2019-04-21T05:46:25.366Z,12.57
2019-04-21T05:51:55.804Z,11.55
2019-04-21T05:54:39.447Z,11.53
2019-04-21T05:57:03.796Z,10.80
2019-04-21T05:59:33.942Z,10.35
2019-04-21T06:02:17.828Z,11.60
2019-04-21T06:04:52.652Z,11.15
2019-04-21T06:07:06.967Z,12.07
2019-04-21T06:09:35.205Z,11.55
2019-04-21T06:12:02.925Z,11.30
2019-04-21T06:14:37.505Z,11.15
2019-04-21T06:17:06.099Z,10.63
2019-04-21T06:19:36.667Z,11.45
2019-04-21T06:21:57.168Z,10.85
2019-04-21T06:24:29.876Z,10.85
2019-04-21T06:29:30.113Z,11.20
2019-04-21T06:32:22.014Z,11.45
2019-04-21T06:34:24.971Z,12.13
2019-04-21T06:37:18.892Z,11.43
2019-04-21T06:39:48.270Z,11.97
2019-04-21T06:41:58.852Z,10.55
2019-04-21T06:44:32.033Z,11.25
2019-04-21T06:47:00.884Z,11.73
2019-04-21T06:49:27.888Z,12.50
2019-04-21T06:52:07.304Z,11.33
2019-04-21T06:56:58.712Z,10.25
2019-04-21T06:59:29.796Z,10.35
2019-04-21T07:01:59.839Z,10.50
2019-04-21T07:04:22.320Z,11.83
2019-04-21T07:06:54.956Z,11.15
2019-04-21T07:09:26.300Z,11.50
2019-04-21T07:11:47.854Z,11.10
2019-04-21T07:14:29.271Z,11.38
2019-04-21T07:16:57.875Z,11.28
2019-04-21T07:19:30.636Z,10.18
2019-04-21T07:21:52.556Z,11.45
2019-04-21T07:24:29.304Z,11.48
2019-04-21T07:26:51.203Z,11.35
2019-04-21T07:29:20.631Z,11.50
2019-04-21T07:31:59.161Z,10.78
2019-04-21T07:34:22.654Z,11.65
2019-04-21T07:36:54.888Z,11.03
2019-04-21T07:39:12.092Z,11.22
2019-04-21T07:41:42.157Z,12.03
2019-04-21T07:44:04.919Z,11.03
2019-04-21T07:46:36.586Z,11.50
2019-04-21T07:49:21.039Z,10.98
2019-04-21T07:52:16.895Z,10.80
2019-04-21T07:54:55.294Z,11.25
2019-04-21T07:57:02.109Z,10.68
2019-04-21T07:59:46.108Z,10.55
2019-04-21T08:02:11.590Z,10.38
2019-04-21T08:07:04.897Z,10.15
2019-04-21T08:09:31.964Z,10.50
2019-04-21T08:12:01.393Z,10.32
2019-04-21T08:14:35.331Z,10.25
2019-04-21T08:17:04.929Z,10.05
2019-04-21T08:19:32.204Z,8.93
2019-04-21T08:22:07.771Z,9.20
2019-04-21T08:24:32.754Z,9.75
2019-04-21T08:27:04.980Z,9.00
2019-04-21T08:29:38.057Z,9.60
2019-04-21T08:32:02.876Z,10.40
2019-04-21T08:34:30.653Z,8.75
2019-04-21T08:36:50.913Z,9.00
2019-04-21T08:39:28.864Z,9.03
2019-04-21T08:41:56.160Z,8.95
2019-04-21T08:44:28.518Z,9.30
2019-04-21T08:49:20.650Z,9.20
2019-04-21T08:52:01.738Z,8.60
2019-04-21T08:54:24.973Z,8.53
2019-04-21T08:57:28.974Z,9.28
2019-04-21T08:59:59.436Z,8.73
2019-04-21T09:02:43.106Z,8.75
2019-04-21T09:05:09.562Z,7.85
2019-04-21T09:10:02.843Z,8.35
2019-04-21T09:12:28.010Z,8.93
2019-04-21T09:15:01.560Z,8.40
2019-04-21T09:17:27.674Z,7.22
2019-04-21T09:20:07.766Z,8.00
2019-04-21T09:22:30.794Z,7.42
2019-04-21T09:25:00.130Z,7.17
2019-04-21T09:27:27.864Z,7.80
2019-04-21T09:29:44.814Z,7.70
2019-04-21T09:32:12.497Z,7.08
2019-04-21T09:34:41.693Z,6.90
2019-04-21T09:37:19.096Z,6.80
2019-04-21T09:39:40.972Z,6.80
2019-04-21T09:42:06.199Z,6.33
2019-04-21T09:44:38.214Z,6.25
2019-04-21T09:47:05.141Z,6.67
2019-04-21T09:49:33.873Z,7.40
2019-04-21T09:52:02.090Z,6.35
2019-04-21T09:54:33.355Z,7.22
2019-04-21T09:57:03.989Z,6.72
2019-04-21T09:59:33.569Z,6.55
2019-04-21T10:02:06.463Z,6.47
2019-04-21T10:04:26.783Z,6.62
2019-04-21T10:06:54.444Z,7.17
2019-04-21T10:09:22.018Z,8.30
2019-04-21T10:11:50.480Z,6.75
2019-04-21T10:14:18.081Z,6.65
2019-04-21T10:17:05.017Z,6.20
2019-04-21T10:19:32.438Z,6.30
2019-04-21T10:22:02.209Z,6.12
2019-04-21T10:24:30.577Z,6.78
2019-04-21T10:26:58.998Z,6.75
2019-04-21T10:29:29.442Z,6.50
2019-04-21T10:31:55.649Z,6.47
2019-04-21T10:34:23.124Z,6.62
2019-04-21T10:36:51.192Z,7.37
2019-04-21T10:39:21.750Z,7.58
2019-04-21T10:41:49.283Z,7.95
2019-04-21T10:44:16.988Z,6.85
2019-04-21T10:46:47.347Z,7.47
2019-04-21T10:49:14.801Z,6.92
2019-04-21T10:51:43.309Z,7.00
2019-04-21T10:54:11.693Z,7.12
2019-04-21T10:56:43.701Z,7.80
2019-04-21T10:59:08.481Z,7.80
2019-04-21T11:01:36.890Z,8.23
2019-04-21T11:04:21.072Z,7.20
2019-04-21T11:06:44.279Z,7.08
2019-04-21T11:09:11.800Z,7.25
2019-04-21T11:11:39.733Z,7.25
2019-04-21T11:14:08.446Z,8.13
2019-04-21T11:16:37.124Z,7.78
2019-04-21T11:19:06.181Z,7.53
2019-04-21T11:21:34.615Z,7.20
2019-04-21T11:24:02.237Z,7.55
2019-04-21T11:26:29.916Z,7.53
2019-04-21T11:28:58.895Z,6.90
2019-04-21T11:31:27.203Z,7.55
2019-04-21T11:33:55.404Z,8.05
2019-04-21T11:36:22.827Z,7.55
2019-04-21T11:39:20.564Z,8.18
2019-04-21T11:41:37.319Z,7.80
2019-04-21T11:44:05.016Z,7.78
2019-04-21T11:46:32.457Z,7.35
2019-04-21T11:49:00.117Z,7.15
2019-04-21T11:51:28.889Z,7.30
2019-04-21T11:53:56.916Z,7.47
2019-04-21T11:56:25.131Z,7.20
2019-04-21T11:58:53.988Z,7.15
2019-04-21T12:01:21.655Z,7.37
2019-04-21T12:03:49.656Z,6.85
2019-04-21T12:06:17.487Z,7.35
2019-04-21T12:08:49.439Z,6.87
2019-04-21T12:11:15.735Z,7.65
2019-04-21T12:13:43.689Z,7.67
2019-04-21T12:16:12.773Z,7.90
2019-04-21T12:18:40.758Z,7.55
2019-04-21T12:21:09.292Z,7.45
2019-04-21T12:23:36.856Z,7.00
2019-04-21T12:26:05.151Z,7.25
2019-04-21T12:28:32.617Z,7.47
2019-04-21T12:31:00.236Z,7.37
2019-04-21T12:33:45.954Z,7.75
2019-04-21T12:36:13.795Z,7.28
2019-04-21T12:38:48.394Z,7.70
2019-04-21T12:41:10.794Z,7.58
2019-04-21T12:43:38.941Z,7.70
2019-04-21T12:46:07.616Z,7.78
2019-04-21T12:48:35.815Z,7.58
2019-04-21T12:51:03.927Z,7.72
2019-04-21T12:53:31.914Z,6.75
2019-04-21T12:56:00.016Z,7.45
2019-04-21T12:58:29.007Z,7.67
2019-04-21T13:00:56.793Z,7.35
2019-04-21T13:03:25.523Z,7.50
2019-04-21T13:05:53.864Z,7.30
2019-04-21T13:08:21.776Z,7.33
2019-04-21T13:10:49.541Z,7.05
2019-04-21T13:13:17.687Z,6.85
2019-04-21T13:15:45.374Z,7.50
2019-04-21T13:18:14.194Z,7.00
2019-04-21T13:20:42.296Z,7.35
2019-04-21T13:23:10.138Z,7.08
2019-04-21T13:25:38.061Z,6.20
2019-04-21T13:28:06.875Z,6.30
2019-04-21T13:30:34.482Z,6.97
2019-04-21T13:33:03.043Z,6.47
2019-04-21T13:35:30.994Z,7.03
2019-04-21T13:37:58.524Z,7.25
2019-04-21T13:40:52.933Z,6.85
2019-04-21T13:43:06.613Z,6.80
2019-04-21T13:45:34.296Z,6.78
2019-04-21T13:48:01.763Z,7.25
2019-04-21T13:50:29.240Z,7.50
2019-04-21T13:52:56.979Z,7.35
2019-04-21T13:55:25.563Z,7.40
2019-04-21T13:57:54.449Z,6.87
2019-04-21T14:00:22.259Z,7.12
2019-04-21T14:02:49.926Z,7.35
2019-04-21T14:05:18.165Z,7.30
2019-04-21T14:07:46.158Z,6.90
2019-04-21T14:10:15.933Z,6.90
2019-04-21T14:12:44.510Z,6.65
2019-04-21T14:15:12.662Z,6.87
2019-04-21T14:17:40.087Z,6.80
2019-04-21T14:20:09.029Z,7.28
2019-04-21T14:22:37.951Z,7.00
2019-04-21T14:25:06.032Z,7.42
2019-04-21T14:27:34.379Z,7.12
2019-04-21T14:30:02.909Z,7.33
2019-04-21T14:32:31.773Z,7.75
2019-04-21T14:35:00.563Z,7.08
2019-04-21T14:37:28.761Z,6.55
2019-04-21T14:40:04.075Z,6.80
2019-04-21T14:42:26.466Z,6.03
2019-04-21T14:44:54.711Z,6.58
2019-04-21T14:47:40.231Z,6.95
2019-04-21T14:50:28.307Z,6.42
2019-04-21T14:53:14.017Z,6.50
2019-04-21T14:55:43.569Z,5.92
2019-04-21T14:58:11.082Z,6.05
2019-04-21T15:00:52.931Z,6.20
2019-04-21T15:03:21.625Z,6.22
2019-04-21T15:05:49.442Z,6.58
2019-04-21T15:08:17.266Z,6.10
2019-04-21T15:10:45.192Z,6.37
2019-04-21T15:13:13.948Z,5.60
2019-04-21T15:15:41.503Z,5.87
2019-04-21T15:18:08.880Z,6.00
2019-04-21T15:20:36.347Z,6.22
2019-04-21T15:23:04.254Z,5.42
2019-04-21T15:25:32.315Z,6.08
2019-04-21T15:28:00.868Z,5.28
2019-04-21T15:30:28.828Z,6.00
2019-04-21T15:32:56.379Z,6.08
2019-04-21T15:35:24.946Z,5.97
2019-04-21T15:37:53.643Z,5.92
2019-04-21T15:40:32.051Z,6.00
2019-04-21T15:42:50.727Z,6.28
2019-04-21T15:45:18.745Z,6.45
2019-04-21T15:47:47.561Z,6.62
2019-04-21T15:50:17.763Z,5.55
2019-04-21T15:52:45.679Z,5.70
2019-04-21T15:55:32.863Z,5.85
2019-04-21T15:58:10.328Z,5.45
2019-04-21T16:00:52.441Z,5.45
2019-04-21T16:03:20.753Z,5.53
2019-04-21T16:05:48.819Z,5.45
2019-04-21T16:08:16.463Z,5.70
2019-04-21T16:10:50.614Z,5.12
2019-04-21T16:13:13.962Z,5.33
2019-04-21T16:15:41.638Z,5.62
2019-04-21T16:18:10.072Z,5.10
2019-04-21T16:20:37.701Z,5.65
2019-04-21T16:23:06.444Z,5.60
2019-04-21T16:25:34.819Z,5.62
2019-04-21T16:28:03.456Z,5.90
2019-04-21T16:30:30.977Z,5.10
2019-04-21T16:32:59.695Z,5.05
2019-04-21T16:35:27.440Z,5.05
2019-04-21T16:37:57.314Z,4.30
2019-04-21T16:40:25.372Z,4.95
2019-04-21T16:42:54.146Z,5.08
2019-04-21T16:45:22.946Z,4.80
2019-04-21T16:47:53.575Z,5.53
2019-04-21T16:50:19.937Z,4.53
2019-04-21T16:52:52.265Z,5.03
2019-04-21T16:55:39.517Z,5.12
2019-04-21T16:58:28.600Z,5.25
2019-04-21T17:01:10.210Z,4.58
2019-04-21T17:03:32.788Z,4.28
2019-04-21T17:06:03.159Z,4.58
2019-04-21T17:08:29.554Z,5.30
2019-04-21T17:11:09.273Z,5.15
2019-04-21T17:13:27.219Z,5.12
2019-04-21T17:16:16.866Z,5.22
2019-04-21T17:18:40.535Z,4.80
2019-04-21T17:20:58.588Z,4.72
2019-04-21T17:23:22.626Z,4.92
2019-04-21T17:25:50.852Z,4.78
2019-04-21T17:28:19.523Z,4.45
2019-04-21T17:30:48.521Z,4.72
2019-04-21T17:33:21.179Z,4.53
2019-04-21T17:35:45.202Z,4.30
2019-04-21T17:38:14.001Z,4.33
2019-04-21T17:40:42.102Z,4.28
2019-04-21T17:43:14.363Z,4.50
2019-04-21T17:45:39.431Z,4.28
2019-04-21T17:48:13.552Z,4.95
2019-04-21T17:50:55.840Z,4.58
2019-04-21T17:53:48.178Z,4.95
2019-04-21T17:56:29.375Z,4.40
2019-04-21T17:59:06.167Z,5.08
2019-04-21T18:01:35.584Z,3.98
2019-04-21T18:04:06.290Z,4.45
2019-04-21T18:06:57.940Z,5.12
2019-04-21T18:09:41.470Z,4.70
2019-04-21T18:12:00.617Z,4.40
2019-04-21T18:14:11.554Z,4.97
2019-04-21T18:16:42.832Z,4.65
2019-04-21T18:19:08.849Z,4.17
2019-04-21T18:21:54.038Z,4.45
2019-04-21T18:24:20.927Z,4.35
2019-04-21T18:26:54.377Z,4.78
2019-04-21T18:29:17.895Z,4.50
2019-04-21T18:31:48.737Z,4.40
2019-04-21T18:34:49.854Z,4.28
2019-04-21T18:37:24.996Z,4.75
2019-04-21T18:39:59.731Z,5.03
2019-04-21T18:42:47.787Z,4.80
2019-04-21T18:48:06.778Z,4.78
2019-04-21T18:50:51.034Z,4.30
2019-04-21T18:53:39.427Z,4.47
2019-04-21T18:56:05.668Z,4.60
2019-04-21T18:58:30.926Z,4.70
2019-04-21T19:01:06.859Z,5.58
2019-04-21T19:03:35.859Z,4.78
2019-04-21T19:06:05.153Z,5.55
2019-04-21T19:08:51.253Z,4.83
2019-04-21T19:11:13.509Z,5.60
2019-04-21T19:14:15.386Z,4.72
2019-04-21T19:16:33.652Z,6.45
2019-04-21T19:19:11.187Z,7.97
2019-04-21T19:21:24.585Z,7.20
2019-04-21T19:24:01.813Z,7.30
2019-04-21T19:26:33.970Z,7.42
2019-04-21T19:29:07.766Z,8.00
2019-04-21T19:31:35.926Z,7.70
2019-04-21T19:33:49.148Z,7.20
2019-04-21T19:36:07.534Z,7.03
2019-04-21T19:38:48.944Z,7.90
2019-04-21T19:41:20.675Z,7.15
2019-04-21T19:43:51.880Z,6.42
2019-04-21T19:46:21.222Z,6.85
2019-04-21T19:48:54.115Z,6.80
2019-04-21T19:51:17.994Z,7.08
2019-04-21T19:53:44.583Z,6.28
2019-04-21T19:56:00.546Z,6.90
2019-04-21T19:58:33.836Z,7.00
2019-04-21T20:00:57.539Z,7.12
2019-04-21T20:03:26.283Z,7.28
2019-04-21T20:06:02.095Z,6.60
2019-04-21T20:08:36.628Z,6.05
2019-04-21T20:11:11.837Z,6.80
2019-04-21T20:13:52.713Z,6.55
2019-04-21T20:16:15.131Z,7.60
2019-04-21T20:18:27.254Z,8.03
2019-04-21T20:20:50.211Z,8.23
2019-04-21T20:23:22.825Z,8.85
2019-04-21T20:25:50.546Z,7.70
2019-04-21T20:28:31.995Z,8.18
2019-04-21T20:31:08.290Z,8.13
2019-04-21T20:36:08.156Z,7.28
2019-04-21T20:38:24.462Z,8.35
2019-04-21T20:40:51.031Z,9.13
2019-04-21T20:43:34.794Z,9.65
2019-04-21T20:48:21.139Z,8.88
2019-04-21T20:51:01.922Z,8.53
2019-04-21T20:53:27.505Z,8.65
2019-04-21T20:55:53.274Z,8.30
2019-04-21T20:58:23.963Z,7.75
2019-04-21T21:01:18.941Z,8.45
2019-04-21T21:03:24.636Z,8.10
2019-04-21T21:05:48.012Z,7.28
2019-04-21T21:08:26.054Z,8.28
2019-04-21T21:10:44.244Z,8.73
2019-04-21T21:13:26.530Z,7.95
2019-04-21T21:16:09.564Z,8.03
2019-04-21T21:20:49.363Z,6.70
2019-04-21T21:23:11.588Z,7.30
2019-04-21T21:26:01.861Z,8.23
2019-04-21T21:28:07.497Z,7.97
2019-04-21T21:30:41.451Z,7.53
2019-04-21T21:33:12.678Z,7.35
2019-04-21T21:35:38.309Z,7.03
2019-04-21T21:38:13.066Z,7.03
2019-04-21T21:40:36.241Z,7.65
2019-04-21T21:42:53.634Z,7.33
2019-04-21T21:45:25.164Z,6.90
2019-04-21T21:48:06.937Z,7.53
2019-04-21T21:50:27.121Z,7.10
2019-04-21T21:52:59.938Z,7.12
2019-04-21T21:55:19.366Z,7.40
2019-04-21T21:57:51.798Z,6.70
2019-04-21T22:00:21.697Z,7.08
2019-04-21T22:02:51.741Z,6.78
2019-04-21T22:05:25.468Z,7.30
2019-04-21T22:07:49.599Z,6.85
2019-04-21T22:10:17.955Z,7.12
2019-04-21T22:12:56.788Z,7.22
2019-04-21T22:15:19.693Z,7.33
2019-04-21T22:18:09.431Z,7.75
2019-04-21T22:20:36.141Z,6.97
2019-04-21T22:22:51.747Z,7.85
2019-04-21T22:25:21.892Z,7.45
2019-04-21T22:27:43.471Z,7.33
2019-04-21T22:30:14.541Z,7.20
2019-04-21T22:32:50.271Z,7.33
2019-04-21T22:35:22.373Z,7.75
2019-04-21T22:37:51.333Z,7.28
2019-04-21T22:40:20.557Z,7.87
2019-04-21T22:42:48.634Z,7.05
2019-04-21T22:45:09.372Z,8.25
2019-04-21T22:47:39.869Z,7.12
2019-04-21T22:50:08.522Z,7.83
2019-04-21T22:52:37.411Z,7.60
2019-04-21T22:55:10.957Z,7.67
2019-04-21T22:57:40.782Z,7.20
2019-04-21T23:00:08.003Z,7.60
2019-04-21T23:02:35.726Z,7.00
2019-04-21T23:05:05.969Z,6.87
2019-04-21T23:07:44.257Z,7.28
2019-04-21T23:10:03.492Z,7.78
2019-04-21T23:12:36.286Z,7.37
2019-04-21T23:15:07.838Z,8.15
2019-04-21T23:17:50.451Z,8.93
2019-04-21T23:20:19.917Z,8.10
2019-04-21T23:22:58.198Z,8.70
2019-04-21T23:25:12.319Z,8.18
2019-04-21T23:27:46.915Z,7.55
2019-04-21T23:30:19.922Z,7.45
2019-04-21T23:32:36.303Z,7.37
2019-04-21T23:34:56.129Z,8.00
2019-04-21T23:37:25.728Z,7.12
2019-04-21T23:40:03.756Z,8.00
2019-04-21T23:42:29.250Z,7.30
2019-04-21T23:44:56.243Z,7.50
2019-04-21T23:47:37.022Z,7.28
2019-04-21T23:49:59.555Z,7.37
2019-04-21T23:52:19.866Z,7.05
2019-04-21T23:54:47.455Z,7.28
2019-04-21T23:57:23.201Z,7.58
2019-04-21T23:59:48.761Z,7.00
